Terminal Aerodrome Forecast
Issued by NWS Missoula, MT

Home | Current Version | Previous Version | Text Only | Print | Product List | Glossary On
Versions: 1 2 3 4 5 6 7 8 9 10 11 12 13 14 15 16 17
000
FTUS45 KMSO 221123
TAFGPI
TAF
KGPI 221123Z 2212/2312 VRB05KT P6SM BKN050 OVC100
     FM221800 03011KT P6SM SCT050 BKN100
     FM230100 VRB03KT P6SM SKC=

USA.gov is the U.S. government's official web portal to all federal, state and local government web resources and services.